createdAt,value
2024-04-15T00:01:37.174Z,101374.32
2024-04-15T00:04:04.578Z,101376.71
2024-04-15T00:06:31.796Z,101379.40
2024-04-15T00:08:58.742Z,101379.30
2024-04-15T00:11:25.967Z,101376.52
2024-04-15T00:13:52.952Z,101377.39
2024-04-15T00:16:20.179Z,101377.44
2024-04-15T00:18:47.364Z,101373.08
2024-04-15T00:21:14.403Z,101372.08
2024-04-15T00:23:41.452Z,101373.43
2024-04-15T00:26:10.555Z,101376.16
2024-04-15T00:28:37.681Z,101380.96
2024-04-15T00:31:04.672Z,101385.08
2024-04-15T00:33:31.760Z,101386.83
2024-04-15T00:35:58.885Z,101388.46
2024-04-15T00:38:25.778Z,101385.44
2024-04-15T00:40:52.752Z,101388.35
2024-04-15T00:43:19.750Z,101384.39
2024-04-15T00:45:46.840Z,101381.52
2024-04-15T00:48:18.056Z,101383.11
2024-04-15T00:50:46.367Z,101383.66
2024-04-15T00:53:15.327Z,101383.25
2024-04-15T00:55:42.308Z,101384.11
2024-04-15T00:58:09.726Z,101383.11
2024-04-15T01:00:37.013Z,101384.52
2024-04-15T01:03:04.544Z,101381.89
2024-04-15T01:05:32.006Z,101383.56
2024-04-15T01:07:58.932Z,101381.17
2024-04-15T01:10:26.076Z,101375.06
2024-04-15T01:12:53.370Z,101372.85
2024-04-15T01:15:20.583Z,101373.30
2024-04-15T01:17:47.695Z,101374.59
2024-04-15T01:20:14.989Z,101377.93
2024-04-15T01:22:45.821Z,101382.48
2024-04-15T01:25:12.795Z,101380.56
2024-04-15T01:27:40.175Z,101386.47
2024-04-15T01:30:09.531Z,101388.80
2024-04-15T01:32:36.416Z,101390.40
2024-04-15T01:35:03.282Z,101388.79
2024-04-15T01:37:30.577Z,101386.66
2024-04-15T01:39:57.590Z,101390.77
2024-04-15T01:42:24.574Z,101387.98
2024-04-15T01:44:51.608Z,101386.64
2024-04-15T01:47:18.748Z,101388.90
2024-04-15T01:49:46.005Z,101387.63
2024-04-15T01:52:13.073Z,101385.23
2024-04-15T01:54:40.104Z,101385.15
2024-04-15T01:57:07.050Z,101387.39
2024-04-15T01:59:34.088Z,101393.58
2024-04-15T02:02:01.162Z,101391.11
2024-04-15T02:04:28.373Z,101388.12
2024-04-15T02:06:55.462Z,101383.21
2024-04-15T02:09:22.785Z,101385.20
2024-04-15T02:11:49.832Z,101384.20
2024-04-15T02:14:16.982Z,101384.17
2024-04-15T02:16:43.828Z,101381.73
2024-04-15T02:19:10.814Z,101383.52
2024-04-15T02:21:38.042Z,101387.77
2024-04-15T02:24:05.575Z,101391.67
2024-04-15T02:26:32.678Z,101397.27
2024-04-15T02:28:59.574Z,101402.65
2024-04-15T02:31:26.522Z,101411.95
2024-04-15T02:33:53.492Z,101417.92
2024-04-15T02:36:20.505Z,101422.38
2024-04-15T02:38:49.457Z,101427.57
2024-04-15T02:41:16.611Z,101430.27
2024-04-15T02:43:43.492Z,101427.13
2024-04-15T02:46:10.518Z,101428.89
2024-04-15T02:48:38.324Z,101429.38
2024-04-15T02:51:05.660Z,101425.48
2024-04-15T02:53:33.427Z,101427.95
2024-04-15T02:56:01.187Z,101424.38
2024-04-15T02:58:28.025Z,101424.34
2024-04-15T03:00:57.209Z,101421.00
2024-04-15T03:03:24.574Z,101418.08
2024-04-15T03:05:51.425Z,101418.42
2024-04-15T03:08:18.572Z,101422.02
2024-04-15T03:10:45.518Z,101415.16
2024-04-15T03:13:12.564Z,101420.73
2024-04-15T03:15:39.818Z,101412.06
2024-04-15T03:18:06.858Z,101417.05
2024-04-15T03:20:33.802Z,101415.23
2024-04-15T03:23:00.751Z,101413.44
2024-04-15T03:25:27.705Z,101416.91
2024-04-15T03:27:54.870Z,101412.86
2024-04-15T03:30:21.789Z,101420.02
2024-04-15T03:32:48.804Z,101418.88
2024-04-15T03:35:16.148Z,101419.72
2024-04-15T03:37:43.409Z,101422.17
2024-04-15T03:40:11.566Z,101424.11
2024-04-15T03:42:38.907Z,101426.41
2024-04-15T03:45:07.093Z,101428.09
2024-04-15T03:47:34.425Z,101428.59
2024-04-15T03:50:01.628Z,101422.84
2024-04-15T03:52:29.103Z,101426.91
2024-04-15T03:54:55.965Z,101426.81
2024-04-15T03:57:22.913Z,101428.04
2024-04-15T03:59:49.942Z,101427.94
2024-04-15T04:02:16.983Z,101428.95
2024-04-15T04:04:44.399Z,101424.42
2024-04-15T04:07:11.538Z,101426.30
2024-04-15T04:09:39.463Z,101430.52
2024-04-15T04:12:06.812Z,101430.70
2024-04-15T04:14:33.695Z,101432.16
2024-04-15T04:17:02.037Z,101435.45
2024-04-15T04:19:33.959Z,101440.92
2024-04-15T04:22:01.263Z,101441.17
2024-04-15T04:24:30.247Z,101443.21
2024-04-15T04:26:57.078Z,101447.95
2024-04-15T04:29:24.232Z,101453.64
2024-04-15T04:31:51.182Z,101454.30
2024-04-15T04:34:18.226Z,101451.79
2024-04-15T04:36:45.286Z,101447.04
2024-04-15T04:39:12.187Z,101445.19
2024-04-15T04:41:39.258Z,101444.52
2024-04-15T04:44:06.224Z,101442.60
2024-04-15T04:46:33.112Z,101450.15
2024-04-15T04:49:00.253Z,101451.34
2024-04-15T04:51:27.656Z,101456.89
2024-04-15T04:53:54.695Z,101456.09
2024-04-15T04:56:22.107Z,101459.35
2024-04-15T04:58:49.639Z,101461.67
2024-04-15T05:01:17.978Z,101467.24
2024-04-15T05:03:51.311Z,101462.39
2024-04-15T05:06:18.961Z,101466.17
2024-04-15T05:08:46.510Z,101466.20
2024-04-15T05:11:13.710Z,101467.03
2024-04-15T05:13:40.698Z,101463.02
2024-04-15T05:16:17.713Z,101461.85
2024-04-15T05:18:46.301Z,101465.84
2024-04-15T05:21:16.945Z,101471.14
2024-04-15T05:23:44.044Z,101469.88
2024-04-15T05:26:11.102Z,101463.16
2024-04-15T05:28:38.147Z,101459.80
2024-04-15T05:31:05.420Z,101460.39
2024-04-15T05:33:33.694Z,101455.95
2024-04-15T05:36:00.829Z,101451.55
2024-04-15T05:38:30.242Z,101448.79
2024-04-15T05:40:57.166Z,101449.05
2024-04-15T05:43:26.660Z,101448.98
2024-04-15T05:45:54.017Z,101447.09
2024-04-15T05:48:21.401Z,101450.37
2024-04-15T05:50:48.550Z,101456.93
2024-04-15T05:53:15.570Z,101459.80
2024-04-15T05:55:42.738Z,101458.84
2024-04-15T05:58:10.042Z,101459.40
2024-04-15T06:00:37.133Z,101451.45
2024-04-15T06:03:04.726Z,101450.63
2024-04-15T06:05:33.464Z,101447.65
2024-04-15T06:08:00.627Z,101447.16
2024-04-15T06:10:28.139Z,101444.21
2024-04-15T06:12:55.266Z,101439.14
2024-04-15T06:15:22.473Z,101437.26
2024-04-15T06:17:49.534Z,101439.41
2024-04-15T06:20:18.420Z,101438.88
2024-04-15T06:22:47.509Z,101439.71
2024-04-15T06:25:15.294Z,101443.89
2024-04-15T06:27:42.332Z,101447.50
2024-04-15T06:30:09.912Z,101451.32
2024-04-15T06:32:41.491Z,101451.77
2024-04-15T06:35:10.680Z,101450.52
2024-04-15T06:37:39.329Z,101446.13
2024-04-15T06:40:07.115Z,101443.74
2024-04-15T06:42:35.356Z,101444.12
2024-04-15T06:45:03.323Z,101442.02
2024-04-15T06:47:30.325Z,101433.54
2024-04-15T06:49:57.324Z,101430.46
2024-04-15T06:52:27.158Z,101429.63
2024-04-15T06:54:54.710Z,101432.38
2024-04-15T06:57:21.742Z,101427.25
2024-04-15T06:59:48.902Z,101430.98
2024-04-15T07:02:20.599Z,101433.98
2024-04-15T07:04:52.055Z,101431.50
2024-04-15T07:07:19.691Z,101432.16
2024-04-15T07:09:46.938Z,101429.64
2024-04-15T07:12:14.164Z,101431.17
2024-04-15T07:14:41.305Z,101429.07
2024-04-15T07:17:08.558Z,101423.30
2024-04-15T07:19:35.698Z,101414.23
2024-04-15T07:22:02.907Z,101410.32
2024-04-15T07:24:30.409Z,101409.36
2024-04-15T07:26:57.558Z,101409.81
2024-04-15T07:29:25.218Z,101414.73
2024-04-15T07:31:52.331Z,101422.35
2024-04-15T07:34:21.191Z,101422.29
2024-04-15T07:36:48.729Z,101429.11
2024-04-15T07:39:15.650Z,101429.91
2024-04-15T07:41:42.615Z,101428.06
2024-04-15T07:44:09.652Z,101423.09
2024-04-15T07:46:36.858Z,101419.55
2024-04-15T07:49:04.577Z,101428.64
2024-04-15T07:51:32.233Z,101427.69
2024-04-15T07:53:59.286Z,101423.70
2024-04-15T07:56:26.429Z,101423.45
2024-04-15T07:58:53.669Z,101424.46
2024-04-15T08:01:20.728Z,101425.86
2024-04-15T08:03:48.181Z,101419.59
2024-04-15T08:06:15.443Z,101412.21
2024-04-15T08:08:42.463Z,101412.19
2024-04-15T08:11:09.911Z,101408.51
2024-04-15T08:13:36.996Z,101406.23
2024-04-15T08:16:04.558Z,101403.71
2024-04-15T08:18:31.698Z,101397.89
2024-04-15T08:20:58.649Z,101401.42
2024-04-15T08:23:25.780Z,101397.19
2024-04-15T08:25:53.862Z,101387.81
2024-04-15T08:28:21.795Z,101381.85
2024-04-15T08:30:48.999Z,101376.13
2024-04-15T08:33:16.187Z,101365.87
2024-04-15T08:35:43.585Z,101350.66
2024-04-15T08:38:10.522Z,101342.40
2024-04-15T08:40:37.688Z,101335.41
2024-04-15T08:43:04.737Z,101341.21
2024-04-15T08:45:32.176Z,101346.90
2024-04-15T08:47:59.524Z,101351.51
2024-04-15T08:50:27.349Z,101360.66
2024-04-15T08:53:14.556Z,101365.45
2024-04-15T08:55:41.674Z,101368.03
2024-04-15T08:58:10.491Z,101361.38
2024-04-15T09:00:37.492Z,101353.63
2024-04-15T09:03:05.042Z,101349.41
2024-04-15T09:05:32.854Z,101350.79
2024-04-15T09:08:00.070Z,101354.70
2024-04-15T09:10:27.354Z,101359.34
2024-04-15T09:12:57.219Z,101354.60
2024-04-15T09:15:26.473Z,101351.44
2024-04-15T09:17:57.069Z,101349.13
2024-04-15T09:20:34.894Z,101347.77
2024-04-15T09:23:11.874Z,101345.59
2024-04-15T09:25:39.402Z,101346.09
2024-04-15T09:28:06.505Z,101343.27
2024-04-15T09:30:33.599Z,101342.04
2024-04-15T09:33:01.140Z,101341.89
2024-04-15T09:35:29.122Z,101339.73
2024-04-15T09:37:56.382Z,101340.83
2024-04-15T09:40:26.139Z,101343.34
2024-04-15T09:42:57.035Z,101341.75
2024-04-15T09:45:24.376Z,101344.66
2024-04-15T09:47:51.803Z,101343.35
2024-04-15T09:50:21.066Z,101342.67
2024-04-15T09:52:53.714Z,101345.46
2024-04-15T09:55:25.672Z,101343.99
2024-04-15T09:57:52.965Z,101342.21
2024-04-15T10:00:20.076Z,101341.69
2024-04-15T10:02:54.216Z,101344.42
2024-04-15T10:05:23.594Z,101347.81
2024-04-15T10:07:54.733Z,101340.54
2024-04-15T10:10:21.930Z,101334.10
2024-04-15T10:12:52.876Z,101328.92
2024-04-15T10:15:21.001Z,101322.86
2024-04-15T10:17:58.431Z,101323.55
2024-04-15T10:20:34.966Z,101321.61
2024-04-15T10:23:25.685Z,101319.96
2024-04-15T10:25:54.268Z,101317.20
2024-04-15T10:28:21.544Z,101309.21
2024-04-15T10:30:49.154Z,101308.09
2024-04-15T10:33:17.420Z,101306.09
2024-04-15T10:35:50.616Z,101304.16
2024-04-15T10:38:17.767Z,101300.39
2024-04-15T10:40:45.959Z,101294.11
2024-04-15T10:43:14.317Z,101294.61
2024-04-15T10:45:41.572Z,101294.77
2024-04-15T10:48:10.720Z,101293.04
2024-04-15T10:50:37.820Z,101295.24
2024-04-15T10:53:04.987Z,101296.81
2024-04-15T10:55:32.269Z,101294.38
2024-04-15T10:57:59.240Z,101293.09
2024-04-15T11:00:26.217Z,101286.10
2024-04-15T11:02:54.462Z,101283.70
2024-04-15T11:05:23.224Z,101284.50
2024-04-15T11:07:57.393Z,101284.39
2024-04-15T11:10:24.368Z,101282.55
2024-04-15T11:12:52.257Z,101277.44
2024-04-15T11:15:19.376Z,101272.85
2024-04-15T11:17:47.031Z,101267.39
2024-04-15T11:20:14.095Z,101266.42
2024-04-15T11:22:41.506Z,101261.36
2024-04-15T11:25:10.471Z,101257.34
2024-04-15T11:27:38.600Z,101254.34
2024-04-15T11:30:07.869Z,101247.38
2024-04-15T11:32:35.924Z,101242.40
2024-04-15T11:35:05.666Z,101235.95
2024-04-15T11:37:32.930Z,101232.69
2024-04-15T11:40:00.959Z,101226.89
2024-04-15T11:42:28.413Z,101223.56
2024-04-15T11:44:56.418Z,101223.57
2024-04-15T11:47:23.580Z,101219.92
2024-04-15T11:49:50.534Z,101214.75
2024-04-15T11:52:18.791Z,101213.09
2024-04-15T11:54:45.955Z,101209.30
2024-04-15T11:57:12.900Z,101203.33
2024-04-15T11:59:40.473Z,101200.11
2024-04-15T12:02:07.407Z,101196.53
2024-04-15T12:04:34.410Z,101195.74
2024-04-15T12:07:01.362Z,101195.30
2024-04-15T12:09:30.168Z,101188.11
2024-04-15T12:11:57.844Z,101180.73
2024-04-15T12:14:24.646Z,101169.42
2024-04-15T12:16:51.585Z,101167.31
2024-04-15T12:19:18.631Z,101165.48
2024-04-15T12:21:45.724Z,101162.52
2024-04-15T12:24:12.552Z,101161.58
2024-04-15T12:26:39.356Z,101154.25
2024-04-15T12:29:06.184Z,101150.84
2024-04-15T12:31:33.112Z,101143.92
2024-04-15T12:34:00.118Z,101143.86
2024-04-15T12:36:27.204Z,101139.02
2024-04-15T12:38:54.079Z,101137.65
2024-04-15T12:41:21.231Z,101133.97
2024-04-15T12:43:49.303Z,101125.52
2024-04-15T12:46:16.292Z,101129.70
2024-04-15T12:48:43.611Z,101122.08
2024-04-15T12:51:10.601Z,101115.75
2024-04-15T12:53:37.443Z,101111.08
2024-04-15T12:56:05.649Z,101110.35
2024-04-15T12:58:32.921Z,101104.50
2024-04-15T13:01:00.649Z,101099.70
2024-04-15T13:03:28.471Z,101095.00
2024-04-15T13:05:55.419Z,101095.27
2024-04-15T13:08:22.233Z,101089.35
2024-04-15T13:10:49.209Z,101087.80
2024-04-15T13:13:16.094Z,101082.26
2024-04-15T13:15:43.013Z,101078.94
2024-04-15T13:18:09.901Z,101081.60
2024-04-15T13:20:36.827Z,101069.83
2024-04-15T13:23:04.078Z,101069.20
2024-04-15T13:25:31.108Z,101066.91
2024-04-15T13:27:58.365Z,101063.55
2024-04-15T13:30:25.170Z,101061.30
2024-04-15T13:32:53.106Z,101061.03
2024-04-15T13:35:20.438Z,101055.34
2024-04-15T13:37:47.888Z,101046.17
2024-04-15T13:40:14.820Z,101042.36
2024-04-15T13:42:41.718Z,101037.63
2024-04-15T13:45:09.247Z,101036.56
2024-04-15T13:47:36.349Z,101033.11
2024-04-15T13:50:04.052Z,101030.66
2024-04-15T13:52:30.986Z,101022.19
2024-04-15T13:54:58.965Z,101017.04
2024-04-15T13:57:25.841Z,101014.74
2024-04-15T13:59:52.858Z,101008.08
2024-04-15T14:02:21.717Z,101002.13
2024-04-15T14:04:50.414Z,100999.08
2024-04-15T14:07:18.049Z,100993.65
2024-04-15T14:09:44.939Z,100989.80
2024-04-15T14:12:12.199Z,100986.95
2024-04-15T14:14:39.060Z,100977.81
2024-04-15T14:17:10.167Z,100969.95
2024-04-15T14:19:37.133Z,100972.05
2024-04-15T14:22:04.938Z,100967.30
2024-04-15T14:24:31.966Z,100965.97
2024-04-15T14:26:58.749Z,100961.64
2024-04-15T14:29:26.578Z,100965.21
2024-04-15T14:31:53.954Z,100960.09
2024-04-15T14:34:20.987Z,100953.09
2024-04-15T14:36:47.916Z,100951.79
2024-04-15T14:39:14.691Z,100946.59
2024-04-15T14:41:42.551Z,100937.11
2024-04-15T14:44:10.639Z,100925.68
2024-04-15T14:46:37.782Z,100920.34
2024-04-15T14:49:05.833Z,100916.30
2024-04-15T14:51:32.803Z,100910.88
2024-04-15T14:53:59.645Z,100901.74
2024-04-15T14:56:26.618Z,100895.77
2024-04-15T14:58:54.276Z,100888.40
2024-04-15T15:01:21.484Z,100889.81
2024-04-15T15:03:48.473Z,100881.30
2024-04-15T15:06:15.406Z,100873.99
2024-04-15T15:08:43.578Z,100869.63
2024-04-15T15:11:12.347Z,100867.59
2024-04-15T15:13:39.642Z,100866.69
2024-04-15T15:16:06.801Z,100864.56
2024-04-15T15:18:33.733Z,100867.69
2024-04-15T15:21:07.929Z,100858.45
2024-04-15T15:23:43.346Z,100853.55
2024-04-15T15:26:10.242Z,100853.70
2024-04-15T15:28:37.177Z,100850.30
2024-04-15T15:31:04.206Z,100845.36
2024-04-15T15:33:31.068Z,100842.42
2024-04-15T15:35:57.961Z,100839.25
2024-04-15T15:38:24.804Z,100829.06
2024-04-15T15:40:51.640Z,100823.27
2024-04-15T15:43:20.876Z,100817.92
2024-04-15T15:45:49.913Z,100814.52
2024-04-15T15:48:18.585Z,100807.39
2024-04-15T15:50:45.580Z,100805.97
2024-04-15T15:53:12.729Z,100802.66
2024-04-15T15:55:39.591Z,100796.58
2024-04-15T15:58:06.638Z,100788.40
2024-04-15T16:00:33.651Z,100790.14
2024-04-15T16:03:01.342Z,100782.90
2024-04-15T16:05:29.576Z,100783.19
2024-04-15T16:07:58.081Z,100785.87
2024-04-15T16:10:24.872Z,100784.15
2024-04-15T16:12:51.865Z,100783.36
2024-04-15T16:15:18.845Z,100782.60
2024-04-15T16:17:45.804Z,100780.85
2024-04-15T16:20:12.736Z,100773.60
2024-04-15T16:22:39.543Z,100778.05
2024-04-15T16:25:06.563Z,100777.79
2024-04-15T16:27:35.928Z,100777.75
2024-04-15T16:30:02.976Z,100778.87
2024-04-15T16:32:31.388Z,100776.73
2024-04-15T16:34:58.450Z,100781.89
2024-04-15T16:37:26.125Z,100783.89
2024-04-15T16:39:53.302Z,100776.58
2024-04-15T16:42:20.231Z,100778.77
2024-04-15T16:44:47.293Z,100779.48
2024-04-15T16:47:14.294Z,100781.27
2024-04-15T16:49:41.168Z,100784.21
2024-04-15T16:52:08.324Z,100782.15
2024-04-15T16:54:35.363Z,100780.11
2024-04-15T16:57:02.382Z,100775.42
2024-04-15T16:59:30.298Z,100773.06
2024-04-15T17:01:57.342Z,100771.16
2024-04-15T17:04:24.335Z,100770.55
2024-04-15T17:06:52.329Z,100770.89
2024-04-15T17:09:19.297Z,100765.39
2024-04-15T17:11:46.167Z,100762.90
2024-04-15T17:14:13.501Z,100762.84
2024-04-15T17:16:40.620Z,100763.55
2024-04-15T17:19:08.132Z,100759.63
2024-04-15T17:21:36.155Z,100761.09
2024-04-15T17:24:03.324Z,100757.34
2024-04-15T17:26:30.497Z,100754.16
2024-04-15T17:28:57.383Z,100754.05
2024-04-15T17:31:24.615Z,100752.71
2024-04-15T17:33:51.659Z,100758.13
2024-04-15T17:36:18.582Z,100760.65
2024-04-15T17:38:47.183Z,100762.75
2024-04-15T17:41:14.162Z,100755.89
2024-04-15T17:43:41.246Z,100754.34
2024-04-15T17:46:08.523Z,100753.31
2024-04-15T17:48:38.252Z,100751.42
2024-04-15T17:51:08.487Z,100749.42
2024-04-15T17:53:35.371Z,100749.63
2024-04-15T17:56:02.469Z,100746.55
2024-04-15T17:58:29.807Z,100743.92
2024-04-15T18:00:56.760Z,100745.77
2024-04-15T18:03:23.870Z,100749.02
2024-04-15T18:05:51.600Z,100748.10
2024-04-15T18:08:18.794Z,100745.69
2024-04-15T18:10:45.889Z,100743.88
2024-04-15T18:13:12.945Z,100741.64
2024-04-15T18:15:40.218Z,100744.63
2024-04-15T18:18:07.515Z,100744.08
2024-04-15T18:20:34.687Z,100737.95
2024-04-15T18:23:01.948Z,100732.08
2024-04-15T18:25:29.975Z,100732.40
2024-04-15T18:27:57.265Z,100733.20
2024-04-15T18:30:24.596Z,100730.14
2024-04-15T18:32:52.061Z,100724.02
2024-04-15T18:35:20.219Z,100726.77
2024-04-15T18:37:48.126Z,100723.27
2024-04-15T18:40:15.514Z,100719.14
2024-04-15T18:42:42.504Z,100719.73
2024-04-15T18:45:09.450Z,100720.66
2024-04-15T18:47:36.529Z,100718.09
2024-04-15T18:50:03.527Z,100714.45
2024-04-15T18:52:31.679Z,100710.04
2024-04-15T18:54:59.664Z,100710.56
2024-04-15T18:57:28.056Z,100706.91
2024-04-15T18:59:55.974Z,100700.92
2024-04-15T19:02:22.991Z,100696.36
2024-04-15T19:04:50.148Z,100692.55
2024-04-15T19:07:17.298Z,100689.81
2024-04-15T19:09:44.408Z,100686.64
2024-04-15T19:12:11.746Z,100679.91
2024-04-15T19:14:51.745Z,100679.01
2024-04-15T19:17:26.513Z,100674.06
2024-04-15T19:19:54.039Z,100671.32
2024-04-15T19:22:21.132Z,100673.02
2024-04-15T19:24:48.585Z,100666.08
2024-04-15T19:27:15.680Z,100661.20
2024-04-15T19:29:45.455Z,100658.35
2024-04-15T19:32:12.736Z,100652.95
2024-04-15T19:34:39.768Z,100651.29
2024-04-15T19:37:06.793Z,100651.58
2024-04-15T19:39:34.748Z,100644.27
2024-04-15T19:42:01.796Z,100646.11
2024-04-15T19:44:29.020Z,100643.83
2024-04-15T19:46:55.979Z,100634.63
2024-04-15T19:49:23.051Z,100631.34
2024-04-15T19:51:50.092Z,100623.19
2024-04-15T19:54:17.219Z,100619.98
2024-04-15T19:56:45.702Z,100617.12
2024-04-15T19:59:12.722Z,100610.69
2024-04-15T20:01:39.639Z,100606.23
2024-04-15T20:04:06.746Z,100601.33
2024-04-15T20:06:34.517Z,100600.63
2024-04-15T20:09:01.930Z,100595.42
2024-04-15T20:11:29.141Z,100592.72
2024-04-15T20:13:56.411Z,100593.44
2024-04-15T20:16:23.474Z,100587.86
2024-04-15T20:19:04.109Z,100587.86
2024-04-15T20:21:31.287Z,100582.55
2024-04-15T20:23:58.477Z,100578.71
2024-04-15T20:26:25.409Z,100577.38
2024-04-15T20:28:52.222Z,100573.49
2024-04-15T20:31:19.248Z,100577.38
2024-04-15T20:33:46.441Z,100573.88
2024-04-15T20:36:13.289Z,100575.25
2024-04-15T20:38:42.654Z,100575.06
2024-04-15T20:41:10.121Z,100568.66
2024-04-15T20:43:37.186Z,100566.02
2024-04-15T20:46:04.302Z,100566.02
2024-04-15T20:48:31.259Z,100558.89
2024-04-15T20:50:58.203Z,100550.83
2024-04-15T20:53:25.010Z,100547.90
2024-04-15T20:55:52.158Z,100542.84
2024-04-15T20:58:19.098Z,100537.63
2024-04-15T21:00:45.980Z,100538.93
2024-04-15T21:03:12.875Z,100533.58
2024-04-15T21:05:39.691Z,100535.93
2024-04-15T21:08:06.981Z,100536.42
2024-04-15T21:10:34.094Z,100538.05
2024-04-15T21:13:01.125Z,100533.91
2024-04-15T21:15:28.441Z,100529.26
2024-04-15T21:17:55.434Z,100531.42
2024-04-15T21:20:23.313Z,100534.26
2024-04-15T21:22:50.239Z,100524.21
2024-04-15T21:25:18.247Z,100525.20
2024-04-15T21:27:45.062Z,100525.05
2024-04-15T21:30:12.053Z,100521.90
2024-04-15T21:32:39.014Z,100511.41
2024-04-15T21:35:06.075Z,100509.17
2024-04-15T21:37:33.030Z,100509.88
2024-04-15T21:39:59.930Z,100501.61
2024-04-15T21:42:26.786Z,100502.34
2024-04-15T21:44:53.831Z,100500.73
2024-04-15T21:47:21.751Z,100494.65
2024-04-15T21:49:50.458Z,100499.16
2024-04-15T21:52:18.601Z,100496.70
2024-04-15T21:54:45.498Z,100494.50
2024-04-15T21:57:12.298Z,100492.27
2024-04-15T21:59:39.104Z,100492.80
2024-04-15T22:02:05.808Z,100484.86
2024-04-15T22:04:40.768Z,100481.27
2024-04-15T22:07:15.467Z,100484.42
2024-04-15T22:09:42.535Z,100480.27
2024-04-15T22:12:09.291Z,100472.89
2024-04-15T22:14:36.332Z,100471.15
2024-04-15T22:17:03.072Z,100472.67
2024-04-15T22:19:30.164Z,100469.87
2024-04-15T22:21:57.060Z,100468.30
2024-04-15T22:24:23.869Z,100465.14
2024-04-15T22:26:50.562Z,100455.60
2024-04-15T22:29:17.356Z,100454.74
2024-04-15T22:31:44.092Z,100450.43
2024-04-15T22:34:11.011Z,100448.01
2024-04-15T22:36:37.909Z,100444.92
2024-04-15T22:39:04.710Z,100443.30
2024-04-15T22:41:31.586Z,100435.06
2024-04-15T22:43:58.448Z,100438.48
2024-04-15T22:46:25.231Z,100441.88
2024-04-15T22:48:54.264Z,100432.55
2024-04-15T22:51:21.109Z,100431.74
2024-04-15T22:53:47.803Z,100424.70
2024-04-15T22:56:14.649Z,100419.70
2024-04-15T22:58:41.495Z,100415.13
2024-04-15T23:01:08.349Z,100410.89
2024-04-15T23:03:35.606Z,100408.14
2024-04-15T23:06:03.350Z,100404.30
2024-04-15T23:08:30.354Z,100401.87
2024-04-15T23:10:57.472Z,100399.40
2024-04-15T23:13:24.251Z,100396.02
2024-04-15T23:15:50.987Z,100395.90
2024-04-15T23:18:17.953Z,100389.23
2024-04-15T23:20:44.781Z,100385.55
2024-04-15T23:23:11.656Z,100388.66
2024-04-15T23:25:38.431Z,100390.61
2024-04-15T23:28:05.263Z,100387.73
2024-04-15T23:30:32.696Z,100391.40
2024-04-15T23:32:59.568Z,100392.11
2024-04-15T23:35:26.352Z,100388.38
2024-04-15T23:37:53.443Z,100389.04
2024-04-15T23:40:20.098Z,100387.15
2024-04-15T23:42:46.813Z,100381.92
2024-04-15T23:45:32.191Z,100378.51
2024-04-15T23:48:17.314Z,100379.77
2024-04-15T23:51:03.189Z,100378.02
2024-04-15T23:53:48.722Z,100374.55
2024-04-15T23:56:34.395Z,100375.42
2024-04-15T23:59:01.217Z,100371.21
